This is the latest recevied weather packets stored in our database for station/object BMCB-19. If no packets are shown the sender has not sent any weather packets the latest 10 day(s).
| Time | Temp. | Humidity | Pressure | Rain* | Wind** | Luminosity | Snow |
|---|---|---|---|---|---|---|---|
| 1777298467 | 17.78° C | 39% | 1022.4 hPa | 0 mm | - | 894 W/m² | - |
| 1777296060 | 17.22° C | 38% | 1022.8 hPa | 0 mm | - | 983 W/m² | - |
| 1777290659 | 16.67° C | 45% | 1023.5 hPa | 0 mm | - | 107 W/m² | - |
| 1777289460 | 16.11° C | 46% | 1023.6 hPa | 0 mm | - | 106 W/m² | - |
| 1777285261 | 13.89° C | 49% | 1024.4 hPa | 0 mm | - | 592 W/m² | - |
| 1777280460 | 12.78° C | 51% | 1024.7 hPa | 0 mm | - | 759 W/m² | - |
| 1777276257 | 10.56° C | 66% | 1025 hPa | 0 mm | - | 441 W/m² | - |
| 1777272656 | 7.78° C | 71% | 1025.3 hPa | 0 mm | - | 318 W/m² | - |
| 1777271456 | 7.22° C | 73% | 1025.2 hPa | 0 mm | - | 249 W/m² | - |
| 1777264857 | 3.89° C | 77% | 1025.3 hPa | 0 mm | - | 20 W/m² | - |
| 1777263659 | 3.89° C | 78% | 1025.3 hPa | 0 mm | - | 4 W/m² | - |
| 1777255220 | 5° C | 74% | 1025.2 hPa | 0 mm | - | 0 W/m² | - |
| 1777253424 | 5.56° C | 74% | 1025.3 hPa | 0 mm | - | 0 W/m² | - |
| 1777246857 | 6.67° C | 68% | 1025.9 hPa | 0 mm | - | 0 W/m² | - |
| 1777245057 | 7.78° C | 65% | 1025.7 hPa | 0 mm | - | 0 W/m² | - |
| 1777240267 | 8.89° C | 63% | 1025.1 hPa | 0 mm | - | 0 W/m² | - |
| 1777237268 | 9.44° C | 63% | 1025.2 hPa | 0 mm | - | 0 W/m² | - |
| 1777235466 | 10° C | 62% | 1025.2 hPa | 0 mm | - | 0 W/m² | - |
| 1777234867 | 10.56° C | 61% | 1025.2 hPa | 0 mm | - | 0 W/m² | - |
| 1777234275 | 11.11° C | 60% | 1025.1 hPa | 0 mm | - | 0 W/m² | - |
| 1777227059 | 13.89° C | 54% | 1024.2 hPa | 0 mm | - | 65 W/m² | - |
| 1777225262 | 15° C | 50% | 1024.1 hPa | 0 mm | - | 94 W/m² | - |
| 1777218659 | 16.11° C | 49% | 1024.3 hPa | 0 mm | - | 526 W/m² | - |
| 1777215058 | 16.67° C | 50% | 1024.5 hPa | 0 mm | - | 747 W/m² | - |
| 1777207858 | 16.11° C | 55% | 1025.2 hPa | 0 mm | - | 101 W/m² | - |
* Rain latest hour (hover to see other rain measurements)
** Current wind speed in m/s (hover to see current wind gust speed)